createdAt,value
2018-03-23T00:00:43.408Z,14.80
2018-03-23T00:03:11.032Z,17.07
2018-03-23T00:05:38.608Z,16.90
2018-03-23T00:08:06.201Z,19.17
2018-03-23T00:10:33.834Z,17.70
2018-03-23T00:13:01.431Z,16.60
2018-03-23T00:15:29.023Z,17.30
2018-03-23T00:17:56.663Z,14.70
2018-03-23T00:20:24.247Z,13.30
2018-03-23T00:22:51.838Z,14.40
2018-03-23T00:25:19.465Z,11.57
2018-03-23T00:27:47.053Z,11.33
2018-03-23T00:30:14.642Z,12.50
2018-03-23T00:32:42.261Z,11.67
2018-03-23T00:35:09.851Z,13.77
2018-03-23T00:37:37.448Z,14.73
2018-03-23T00:40:05.084Z,12.83
2018-03-23T00:42:32.684Z,13.40
2018-03-23T00:45:00.274Z,14.40
2018-03-23T00:47:27.905Z,14.30
2018-03-23T00:49:55.482Z,12.70
2018-03-23T00:52:23.069Z,13.67
2018-03-23T00:54:50.702Z,13.90
2018-03-23T00:57:18.330Z,12.73
2018-03-23T00:59:45.910Z,13.47
2018-03-23T01:02:13.542Z,13.10
2018-03-23T01:04:41.126Z,13.70
2018-03-23T01:07:08.719Z,12.73
2018-03-23T01:09:36.384Z,12.47
2018-03-23T01:12:03.967Z,11.67
2018-03-23T01:14:31.559Z,11.90
2018-03-23T01:16:59.223Z,12.97
2018-03-23T01:19:26.822Z,12.43
2018-03-23T01:21:54.407Z,12.47
2018-03-23T01:24:22.028Z,13.83
2018-03-23T01:26:49.616Z,13.63
2018-03-23T01:29:17.211Z,12.93
2018-03-23T01:31:44.835Z,14.70
2018-03-23T01:34:12.419Z,15.03
2018-03-23T01:36:40.010Z,14.70
2018-03-23T01:39:07.644Z,14.50
2018-03-23T01:41:35.235Z,14.20
2018-03-23T01:44:02.849Z,12.87
2018-03-23T01:46:30.469Z,15.27
2018-03-23T01:48:58.053Z,14.50
2018-03-23T01:51:25.649Z,15.10
2018-03-23T01:53:53.269Z,13.27
2018-03-23T01:56:20.857Z,15.10
2018-03-23T01:58:48.458Z,15.57
2018-03-23T02:01:16.089Z,14.70
2018-03-23T02:03:43.684Z,15.60
2018-03-23T02:06:11.271Z,13.77
2018-03-23T02:08:38.890Z,13.63
2018-03-23T02:11:06.473Z,12.80
2018-03-23T02:13:34.057Z,13.53
2018-03-23T02:16:01.672Z,14.33
2018-03-23T02:18:29.266Z,15.67
2018-03-23T02:20:56.856Z,14.17
2018-03-23T02:23:24.486Z,13.13
2018-03-23T02:25:52.068Z,15.33
2018-03-23T02:28:19.659Z,15.60
2018-03-23T02:30:47.300Z,15.67
2018-03-23T02:33:14.886Z,16.23
2018-03-23T02:35:42.481Z,14.00
2018-03-23T02:38:10.099Z,12.63
2018-03-23T02:40:37.679Z,11.20
2018-03-23T02:43:05.270Z,11.20
2018-03-23T02:45:32.885Z,11.47
2018-03-23T02:48:00.471Z,11.90
2018-03-23T02:50:28.058Z,8.87
2018-03-23T02:52:55.709Z,11.60
2018-03-23T02:55:23.291Z,9.93
2018-03-23T02:57:50.878Z,11.50
2018-03-23T03:00:18.499Z,9.70
2018-03-23T03:02:46.087Z,10.17
2018-03-23T03:05:13.679Z,11.80
2018-03-23T03:07:41.311Z,9.07
2018-03-23T03:10:08.892Z,9.87
2018-03-23T03:12:36.474Z,8.70
2018-03-23T03:15:04.141Z,7.03
2018-03-23T03:17:31.721Z,5.77
2018-03-23T03:19:59.285Z,5.30
2018-03-23T03:22:26.894Z,4.77
2018-03-23T03:24:54.476Z,6.27
2018-03-23T03:27:22.056Z,5.67
2018-03-23T03:29:49.678Z,4.10
2018-03-23T03:32:17.253Z,6.70
2018-03-23T03:34:44.831Z,5.30
2018-03-23T03:37:12.440Z,5.70
2018-03-23T03:39:40.014Z,6.33
2018-03-23T03:42:07.598Z,6.67
2018-03-23T03:44:35.218Z,6.70
2018-03-23T03:47:02.798Z,7.40
2018-03-23T03:49:30.427Z,7.10
2018-03-23T03:51:58.033Z,6.93
2018-03-23T03:54:25.610Z,7.30
2018-03-23T03:56:53.182Z,6.60
2018-03-23T03:59:20.799Z,7.77
2018-03-23T04:01:48.377Z,7.87
2018-03-23T04:04:15.966Z,6.83
2018-03-23T04:06:43.579Z,8.67
2018-03-23T04:09:11.152Z,8.80
2018-03-23T04:11:38.741Z,7.70
2018-03-23T04:14:06.353Z,7.93
2018-03-23T04:16:33.934Z,7.53
2018-03-23T04:19:01.519Z,8.23
2018-03-23T04:21:29.146Z,7.60
2018-03-23T04:23:56.729Z,8.90
2018-03-23T04:26:24.310Z,7.33
2018-03-23T04:28:51.929Z,7.40
2018-03-23T04:31:19.498Z,8.17
2018-03-23T04:33:47.090Z,7.90
2018-03-23T04:36:14.720Z,10.20
2018-03-23T04:38:42.319Z,7.43
2018-03-23T04:41:09.901Z,6.80
2018-03-23T04:43:37.526Z,8.03
2018-03-23T04:46:05.152Z,7.80
2018-03-23T04:48:32.735Z,8.83
2018-03-23T04:51:00.349Z,8.13
2018-03-23T04:53:27.952Z,7.23
2018-03-23T04:55:55.545Z,9.00
2018-03-23T04:58:23.174Z,7.87
2018-03-23T05:00:50.757Z,6.57
2018-03-23T05:03:18.359Z,10.93
2018-03-23T05:05:45.972Z,8.33
2018-03-23T05:08:13.569Z,14.80
2018-03-23T05:10:41.157Z,10.70
2018-03-23T05:13:08.769Z,7.83
2018-03-23T05:15:36.360Z,10.03
2018-03-23T05:18:03.937Z,9.07
2018-03-23T05:20:31.562Z,8.13
2018-03-23T05:22:59.124Z,7.87
2018-03-23T05:25:26.706Z,9.07
2018-03-23T05:27:54.326Z,8.50
2018-03-23T05:30:21.913Z,9.63
2018-03-23T05:32:49.502Z,11.00
2018-03-23T05:35:17.116Z,9.00
2018-03-23T05:37:44.699Z,10.47
2018-03-23T05:40:12.274Z,8.30
2018-03-23T05:42:39.890Z,7.80
2018-03-23T05:45:07.472Z,9.33
2018-03-23T05:47:35.049Z,10.93
2018-03-23T05:50:02.661Z,9.20
2018-03-23T05:52:30.370Z,12.20
2018-03-23T05:54:58.003Z,11.40
2018-03-23T05:57:25.634Z,38.90
2018-03-23T05:59:53.299Z,16.00
2018-03-23T06:02:20.867Z,18.50
2018-03-23T06:04:48.510Z,13.10
2018-03-23T06:07:16.098Z,13.00
2018-03-23T06:09:43.670Z,13.10
2018-03-23T06:12:11.285Z,14.73
2018-03-23T06:14:38.868Z,17.43
2018-03-23T06:17:06.550Z,13.13
2018-03-23T06:19:34.164Z,13.10
2018-03-23T06:22:01.742Z,14.00
2018-03-23T06:24:29.328Z,14.13
2018-03-23T06:26:56.923Z,15.53
2018-03-23T06:29:24.497Z,12.57
2018-03-23T06:31:52.073Z,13.50
2018-03-23T06:34:19.694Z,16.83
2018-03-23T06:36:47.274Z,14.70
2018-03-23T06:39:14.871Z,12.87
2018-03-23T06:41:42.490Z,13.00
2018-03-23T06:44:10.121Z,10.40
2018-03-23T06:46:38.622Z,14.07
2018-03-23T06:49:06.239Z,18.87
2018-03-23T06:51:33.825Z,15.83
2018-03-23T06:54:01.586Z,16.30
2018-03-23T06:56:29.203Z,13.33
2018-03-23T06:58:56.795Z,7.10
2018-03-23T07:01:24.385Z,9.40
2018-03-23T07:03:52.029Z,16.57
2018-03-23T07:06:19.613Z,16.90
2018-03-23T07:08:47.198Z,14.83
2018-03-23T07:11:14.837Z,15.83
2018-03-23T07:13:42.414Z,14.30
2018-03-23T07:16:10.100Z,12.30
2018-03-23T07:18:37.774Z,10.47
2018-03-23T07:21:06.286Z,16.73
2018-03-23T07:23:33.868Z,14.87
2018-03-23T07:26:01.500Z,13.10
2018-03-23T07:28:29.092Z,19.97
2018-03-23T07:30:56.694Z,20.80
2018-03-23T07:33:24.327Z,43.10
2018-03-23T07:35:51.923Z,13.07
2018-03-23T07:38:19.510Z,19.20
2018-03-23T07:40:47.141Z,14.17
2018-03-23T07:43:14.734Z,12.60
2018-03-23T07:45:42.383Z,19.10
2018-03-23T07:48:10.004Z,12.10
2018-03-23T07:50:37.597Z,16.47
2018-03-23T07:53:05.186Z,14.03
2018-03-23T07:55:32.810Z,15.60
2018-03-23T07:58:00.394Z,8.93
2018-03-23T08:00:27.987Z,12.27
2018-03-23T08:02:55.611Z,11.30
2018-03-23T08:05:23.198Z,19.03
2018-03-23T08:07:50.773Z,13.73
2018-03-23T08:10:18.402Z,13.33
2018-03-23T08:12:46.106Z,10.27
2018-03-23T08:15:13.710Z,8.33
2018-03-23T08:17:41.332Z,9.20
2018-03-23T08:20:08.949Z,7.43
2018-03-23T08:22:36.580Z,8.20
2018-03-23T08:25:04.209Z,6.57
2018-03-23T08:27:31.791Z,8.17
2018-03-23T08:29:59.384Z,7.97
2018-03-23T08:32:27.055Z,9.20
2018-03-23T08:34:54.650Z,9.13
2018-03-23T08:37:22.307Z,8.20
2018-03-23T08:39:49.965Z,9.63
2018-03-23T08:42:17.562Z,10.23
2018-03-23T08:44:45.246Z,9.00
2018-03-23T08:47:12.876Z,12.73
2018-03-23T08:49:40.470Z,13.17
2018-03-23T08:52:08.644Z,12.57
2018-03-23T08:54:36.266Z,11.33
2018-03-23T08:57:03.858Z,11.70
2018-03-23T08:59:31.492Z,12.87
2018-03-23T09:01:59.121Z,10.27
2018-03-23T09:04:26.696Z,7.80
2018-03-23T09:06:54.299Z,9.00
2018-03-23T09:09:21.984Z,10.90
2018-03-23T09:11:49.569Z,11.67
2018-03-23T09:14:17.149Z,10.67
2018-03-23T09:16:44.796Z,13.90
2018-03-23T09:19:12.390Z,10.37
2018-03-23T09:21:39.981Z,9.67
2018-03-23T09:24:07.614Z,17.43
2018-03-23T09:26:35.245Z,17.77
2018-03-23T09:29:02.832Z,12.63
2018-03-23T09:31:30.462Z,15.40
2018-03-23T09:33:58.076Z,18.87
2018-03-23T09:36:25.682Z,14.90
2018-03-23T09:38:53.349Z,15.60
2018-03-23T09:41:20.969Z,16.90
2018-03-23T09:43:48.610Z,19.97
2018-03-23T09:46:16.257Z,16.80
2018-03-23T09:48:43.903Z,16.00
2018-03-23T09:51:11.471Z,16.33
2018-03-23T09:53:39.083Z,9.60
2018-03-23T09:56:06.672Z,9.20
2018-03-23T09:58:34.256Z,10.10
2018-03-23T10:01:01.955Z,11.33
2018-03-23T10:03:29.558Z,9.97
2018-03-23T10:05:57.169Z,13.33
2018-03-23T10:08:24.796Z,11.10
2018-03-23T10:10:52.378Z,16.63
2018-03-23T10:13:19.986Z,10.20
2018-03-23T10:15:47.617Z,11.67
2018-03-23T10:18:15.201Z,10.17
2018-03-23T10:20:42.793Z,12.80
2018-03-23T10:23:10.405Z,9.43
2018-03-23T10:25:37.984Z,7.47
2018-03-23T10:28:05.555Z,9.73
2018-03-23T10:30:33.166Z,8.77
2018-03-23T10:33:00.760Z,10.97
2018-03-23T10:35:28.572Z,10.87
2018-03-23T10:37:56.380Z,12.70
2018-03-23T10:40:24.037Z,13.83
2018-03-23T10:42:51.620Z,13.30
2018-03-23T10:45:19.380Z,12.33
2018-03-23T10:47:46.962Z,10.47
2018-03-23T10:50:14.692Z,8.80
2018-03-23T10:52:42.535Z,13.50
2018-03-23T10:55:10.113Z,13.53
2018-03-23T10:57:37.693Z,12.67
2018-03-23T11:00:05.405Z,11.73
2018-03-23T11:02:43.029Z,12.67
2018-03-23T11:05:10.655Z,10.23
2018-03-23T11:07:38.233Z,16.13
2018-03-23T11:10:05.814Z,12.63
2018-03-23T11:12:33.432Z,12.83
2018-03-23T11:15:01.054Z,18.17
2018-03-23T11:17:28.634Z,11.63
2018-03-23T11:19:56.234Z,11.67
2018-03-23T11:22:23.818Z,12.63
2018-03-23T11:24:51.586Z,13.47
2018-03-23T11:27:19.199Z,11.47
2018-03-23T11:29:46.926Z,13.80
2018-03-23T11:32:14.571Z,14.30
2018-03-23T11:34:42.185Z,10.47
2018-03-23T11:37:09.760Z,10.90
2018-03-23T11:39:37.322Z,9.73
2018-03-23T11:42:04.931Z,10.53
2018-03-23T11:44:32.493Z,10.67
2018-03-23T11:47:00.086Z,12.30
2018-03-23T11:49:27.693Z,13.17
2018-03-23T11:51:55.297Z,13.70
2018-03-23T11:54:22.869Z,13.73
2018-03-23T11:56:50.614Z,11.30
2018-03-23T11:59:18.350Z,12.60
2018-03-23T12:01:45.923Z,9.53
2018-03-23T12:04:13.631Z,19.10
2018-03-23T12:06:41.206Z,11.30
2018-03-23T12:09:08.770Z,10.50
2018-03-23T12:11:36.383Z,13.67
2018-03-23T12:14:04.123Z,13.30
2018-03-23T12:16:31.701Z,15.60
2018-03-23T12:18:59.441Z,18.23
2018-03-23T12:21:27.054Z,9.37
2018-03-23T12:23:54.771Z,13.27
2018-03-23T12:26:22.368Z,14.40
2018-03-23T12:28:50.305Z,13.87
2018-03-23T12:31:17.954Z,12.77
2018-03-23T12:33:45.556Z,9.60
2018-03-23T12:36:13.142Z,8.73
2018-03-23T12:38:40.706Z,11.13
2018-03-23T12:41:08.315Z,11.73
2018-03-23T12:43:35.919Z,10.90
2018-03-23T12:46:03.516Z,13.97
2018-03-23T12:48:31.113Z,11.70
2018-03-23T12:50:58.750Z,14.73
2018-03-23T12:53:26.320Z,10.20
2018-03-23T12:55:53.924Z,7.70
2018-03-23T12:58:21.502Z,11.13
2018-03-23T13:00:49.294Z,15.83
2018-03-23T13:03:16.899Z,14.00
2018-03-23T13:05:44.458Z,13.43
2018-03-23T13:08:12.015Z,17.73
2018-03-23T13:10:39.681Z,10.90
2018-03-23T13:13:07.254Z,10.47
2018-03-23T13:15:34.831Z,12.20
2018-03-23T13:18:02.435Z,13.63
2018-03-23T13:20:30.000Z,11.87
2018-03-23T13:22:57.573Z,13.97
2018-03-23T13:25:25.192Z,12.80
2018-03-23T13:27:52.776Z,15.37
2018-03-23T13:30:20.367Z,15.20
2018-03-23T13:32:47.988Z,12.70
2018-03-23T13:35:15.565Z,16.00
2018-03-23T13:37:43.129Z,14.60
2018-03-23T13:40:10.736Z,16.53
2018-03-23T13:42:38.302Z,14.00
2018-03-23T13:45:05.878Z,15.33
2018-03-23T13:47:33.483Z,16.90
2018-03-23T13:50:01.070Z,17.30
2018-03-23T13:52:28.650Z,16.17
2018-03-23T13:54:56.255Z,14.97
2018-03-23T13:57:23.838Z,22.67
2018-03-23T13:59:57.050Z,17.80
2018-03-23T14:02:24.633Z,15.73
2018-03-23T14:04:52.254Z,16.00
2018-03-23T14:07:19.873Z,29.90
2018-03-23T14:09:47.454Z,18.50
2018-03-23T14:12:15.026Z,19.57
2018-03-23T14:14:43.602Z,29.07
2018-03-23T14:17:11.186Z,30.73
2018-03-23T14:19:38.778Z,23.20
2018-03-23T14:22:06.385Z,27.60
2018-03-23T14:24:33.969Z,16.93
2018-03-23T14:27:01.555Z,22.20
2018-03-23T14:29:29.174Z,17.13
2018-03-23T14:31:56.765Z,16.07
2018-03-23T14:34:24.353Z,18.87
2018-03-23T14:36:51.970Z,16.40
2018-03-23T14:39:19.564Z,15.80
2018-03-23T14:41:47.154Z,21.20
2018-03-23T14:44:14.810Z,17.20
2018-03-23T14:46:42.425Z,19.43
2018-03-23T14:49:10.000Z,14.20
2018-03-23T14:51:37.666Z,16.30
2018-03-23T14:54:05.258Z,16.60
2018-03-23T14:56:32.842Z,18.93
2018-03-23T14:59:05.874Z,14.60
2018-03-23T15:01:33.450Z,11.97
2018-03-23T15:04:01.035Z,14.93
2018-03-23T15:06:28.669Z,16.30
2018-03-23T15:08:56.241Z,14.30
2018-03-23T15:11:23.811Z,19.50
2018-03-23T15:13:51.462Z,21.10
2018-03-23T15:16:19.042Z,16.70
2018-03-23T15:18:46.635Z,20.73
2018-03-23T15:21:14.263Z,20.60
2018-03-23T15:23:41.910Z,23.90
2018-03-23T15:26:09.494Z,22.50
2018-03-23T15:28:37.174Z,61.20
2018-03-23T15:31:04.775Z,30.67
2018-03-23T15:33:32.353Z,33.00
2018-03-23T15:35:59.974Z,26.17
2018-03-23T15:38:27.571Z,32.07
2018-03-23T15:40:55.190Z,24.20
2018-03-23T15:43:22.815Z,21.67
2018-03-23T15:45:50.398Z,21.73
2018-03-23T15:48:17.999Z,29.50
2018-03-23T15:50:45.600Z,28.00
2018-03-23T15:53:13.190Z,26.67
2018-03-23T15:55:40.782Z,29.20
2018-03-23T15:58:08.540Z,26.67
2018-03-23T16:00:36.135Z,27.73
2018-03-23T16:03:03.759Z,28.67
2018-03-23T16:05:31.760Z,32.40
2018-03-23T16:07:59.365Z,23.40
2018-03-23T16:10:26.958Z,32.00
2018-03-23T16:12:54.588Z,31.10
2018-03-23T16:15:22.183Z,30.20
2018-03-23T16:17:49.773Z,28.20
2018-03-23T16:20:17.406Z,31.03
2018-03-23T16:22:44.994Z,26.90
2018-03-23T16:25:12.573Z,35.43
2018-03-23T16:27:40.235Z,32.50
2018-03-23T16:30:07.822Z,24.33
2018-03-23T16:32:35.403Z,25.97
2018-03-23T16:35:03.036Z,26.90
2018-03-23T16:37:30.655Z,32.30
2018-03-23T16:39:58.317Z,26.87
2018-03-23T16:42:25.928Z,32.20
2018-03-23T16:44:53.499Z,29.07
2018-03-23T16:47:21.090Z,33.53
2018-03-23T16:49:48.705Z,49.70
2018-03-23T16:52:16.298Z,47.20
2018-03-23T16:54:43.925Z,36.17
2018-03-23T16:57:11.642Z,49.57
2018-03-23T16:59:39.224Z,32.60
2018-03-23T17:02:06.809Z,30.27
2018-03-23T17:04:34.447Z,32.53
2018-03-23T17:07:02.035Z,28.70
2018-03-23T17:09:29.639Z,32.53
2018-03-23T17:11:57.266Z,39.63
2018-03-23T17:14:24.896Z,35.40
2018-03-23T17:16:52.509Z,40.23
2018-03-23T17:19:20.129Z,31.70
2018-03-23T17:21:47.860Z,30.50
2018-03-23T17:24:15.506Z,30.43
2018-03-23T17:26:43.123Z,34.60
2018-03-23T17:29:11.033Z,58.53
2018-03-23T17:31:38.694Z,29.43
2018-03-23T17:34:06.373Z,33.70
2018-03-23T17:36:34.022Z,35.80
2018-03-23T17:39:01.594Z,32.90
2018-03-23T17:41:29.360Z,43.73
2018-03-23T17:43:56.947Z,41.20
2018-03-23T17:46:24.670Z,36.50
2018-03-23T17:48:52.351Z,35.57
2018-03-23T17:51:19.906Z,34.50
2018-03-23T17:53:47.647Z,40.93
2018-03-23T17:56:15.272Z,43.80
2018-03-23T17:58:42.880Z,40.83
2018-03-23T18:01:10.640Z,56.20
2018-03-23T18:03:38.233Z,54.70
2018-03-23T18:06:05.803Z,61.87
2018-03-23T18:08:33.430Z,35.53
2018-03-23T18:11:01.096Z,41.97
2018-03-23T18:13:28.765Z,50.10
2018-03-23T18:15:56.342Z,46.50
2018-03-23T18:18:24.086Z,49.50
2018-03-23T18:20:51.662Z,40.77
2018-03-23T18:23:19.237Z,39.20
2018-03-23T18:25:46.866Z,36.20
2018-03-23T18:28:14.547Z,37.80
2018-03-23T18:30:42.190Z,29.80
2018-03-23T18:33:09.831Z,39.73
2018-03-23T18:35:37.520Z,40.80
2018-03-23T18:38:05.167Z,35.23
2018-03-23T18:40:32.767Z,40.00
2018-03-23T18:43:00.339Z,36.50
2018-03-23T18:45:27.910Z,35.70
2018-03-23T18:47:55.606Z,40.27
2018-03-23T18:50:23.179Z,51.00
2018-03-23T18:52:50.934Z,44.57
2018-03-23T18:55:18.603Z,46.40
2018-03-23T18:57:46.277Z,36.60
2018-03-23T19:00:13.886Z,34.77
2018-03-23T19:02:41.592Z,38.00
2018-03-23T19:05:09.251Z,38.60
2018-03-23T19:07:36.910Z,75.53
2018-03-23T19:10:04.557Z,54.20
2018-03-23T19:12:32.151Z,51.37
2018-03-23T19:14:59.907Z,45.57
2018-03-23T19:17:27.525Z,40.47
2018-03-23T19:19:55.109Z,44.50
2018-03-23T19:22:22.672Z,46.53
2018-03-23T19:24:50.330Z,50.30
2018-03-23T19:27:17.892Z,47.67
2018-03-23T19:29:45.692Z,66.00
2018-03-23T19:32:13.302Z,39.70
2018-03-23T19:34:40.869Z,43.03
2018-03-23T19:37:08.439Z,29.70
2018-03-23T19:39:36.114Z,43.30
2018-03-23T19:42:03.677Z,31.87
2018-03-23T19:44:31.264Z,42.77
2018-03-23T19:46:58.866Z,52.63
2018-03-23T19:49:26.435Z,35.77
2018-03-23T19:51:54.039Z,30.17
2018-03-23T19:54:21.694Z,31.90
2018-03-23T19:56:49.324Z,38.00
2018-03-23T19:59:17.052Z,37.30
2018-03-23T20:01:44.683Z,35.73
2018-03-23T20:04:12.273Z,30.50
2018-03-23T20:06:39.848Z,32.73
2018-03-23T20:09:07.462Z,33.90
2018-03-23T20:11:35.045Z,35.07
2018-03-23T20:14:08.231Z,36.93
2018-03-23T20:16:35.813Z,31.67
2018-03-23T20:19:03.397Z,31.30
2018-03-23T20:21:30.995Z,31.40
2018-03-23T20:27:13.400Z,30.53
2018-03-23T20:29:40.966Z,40.50
2018-03-23T20:32:14.228Z,39.43
2018-03-23T20:34:41.822Z,29.40
2018-03-23T20:37:09.383Z,30.97
2018-03-23T20:39:36.972Z,30.80
2018-03-23T20:42:04.541Z,32.93
2018-03-23T20:44:32.138Z,34.03
2018-03-23T20:46:59.755Z,37.37
2018-03-23T20:49:27.322Z,36.20
2018-03-23T20:51:54.894Z,44.50
2018-03-23T20:54:22.520Z,40.13
2018-03-23T20:56:50.123Z,41.77
2018-03-23T20:59:17.762Z,47.30
2018-03-23T21:01:45.357Z,37.47
2018-03-23T21:04:12.934Z,36.07
2018-03-23T21:06:40.526Z,38.80
2018-03-23T21:09:08.138Z,36.67
2018-03-23T21:11:35.698Z,30.83
2018-03-23T21:14:03.306Z,30.80
2018-03-23T21:16:30.923Z,28.50
2018-03-23T21:18:58.528Z,24.13
2018-03-23T21:21:26.222Z,22.80
2018-03-23T21:23:53.830Z,22.13
2018-03-23T21:26:21.411Z,23.30
2018-03-23T21:28:48.990Z,22.70
2018-03-23T21:31:16.605Z,27.70
2018-03-23T21:33:44.200Z,23.77
2018-03-23T21:36:11.772Z,27.50
2018-03-23T21:38:39.422Z,26.33
2018-03-23T21:41:06.997Z,26.50
2018-03-23T21:43:34.569Z,27.60
2018-03-23T21:46:02.176Z,33.10
2018-03-23T21:48:29.756Z,32.20
2018-03-23T21:50:57.321Z,28.50
2018-03-23T21:53:24.931Z,31.70
2018-03-23T21:55:52.505Z,31.47
2018-03-23T21:58:20.087Z,33.50
2018-03-23T22:00:47.684Z,32.50
2018-03-23T22:03:15.234Z,27.67
2018-03-23T22:05:42.818Z,26.73
2018-03-23T22:08:10.418Z,28.17
2018-03-23T22:10:38.031Z,28.47
2018-03-23T22:13:05.583Z,30.33
2018-03-23T22:15:33.187Z,28.30
2018-03-23T22:18:00.746Z,29.63
2018-03-23T22:20:28.316Z,25.10
2018-03-23T22:22:55.905Z,30.53
2018-03-23T22:25:23.471Z,31.57
2018-03-23T22:27:51.044Z,25.33
2018-03-23T22:30:18.649Z,29.77
2018-03-23T22:32:46.226Z,26.07
2018-03-23T22:35:13.796Z,31.63
2018-03-23T22:37:41.411Z,27.20
2018-03-23T22:40:09.002Z,28.20
2018-03-23T22:42:36.585Z,25.97
2018-03-23T22:45:04.229Z,25.37
2018-03-23T22:47:31.816Z,28.60
2018-03-23T22:49:59.390Z,23.27
2018-03-23T22:52:27.002Z,26.17
2018-03-23T22:54:54.867Z,27.20
2018-03-23T22:57:22.541Z,26.47
2018-03-23T22:59:50.170Z,25.83
2018-03-23T23:02:17.759Z,25.70
2018-03-23T23:04:45.342Z,32.23
2018-03-23T23:07:12.949Z,56.80
2018-03-23T23:09:40.548Z,33.40
2018-03-23T23:12:08.518Z,33.10
2018-03-23T23:14:36.144Z,35.23
2018-03-23T23:17:03.726Z,33.13
2018-03-23T23:19:31.359Z,30.47
2018-03-23T23:21:59.002Z,28.27
2018-03-23T23:24:26.587Z,27.87
2018-03-23T23:26:54.169Z,28.17
2018-03-23T23:29:21.838Z,27.20
2018-03-23T23:31:49.417Z,26.93
2018-03-23T23:34:17.005Z,28.20
2018-03-23T23:36:44.623Z,25.83
2018-03-23T23:39:12.215Z,26.77
2018-03-23T23:41:39.805Z,27.50
2018-03-23T23:44:07.428Z,22.80
2018-03-23T23:46:35.021Z,26.10
2018-03-23T23:49:02.611Z,21.83
2018-03-23T23:51:30.242Z,25.17
2018-03-23T23:53:57.829Z,28.97
2018-03-23T23:56:25.407Z,31.33
2018-03-23T23:58:53.031Z,30.00
